Denhart, Iowa
Current Conditions -  °F | °C
As of 10:15 AM on Wednesday 22 Oct 2014 (Local Time) from KCAV Reporting Station
Broken Clouds Broken Clouds  
Wind Chill: 50°   Ceiling: 5500
Heat Index: 50°   Visibility: 10mi
Dew Point: 41°   Wind: 16mph
Humidity: 71%   Direction: 150°SSE
Pressure: 30.2"   Gusts: 22mph
Location:  42.9524°N, 93.7361°W
Report Text: KCAV 221515Z AUTO 15014G19KT 10SM BKN055 10/05 A3020 RMK AO2
Loading
Personal Weather Stations






























Interactive Weather Map New forecast layout! Learn more

10-Day Weather Forecast

Advertisements
Track Severe Weather on mobile